RJAO(METAR)
04/24 09:00
METAR RJAO 240000Z 06005KT 2000 -SHRA BR BKN006 BKN010 22/21 Q1015
RMK 6CU006 7CU010 A2999 SEA 0.2M=
戻る
トップページへ戻る
IMOC Co,.Ltd.